createdAt,value
2018-11-28T00:00:13.022Z,5.70
2018-11-28T00:02:41.357Z,5.70
2018-11-28T00:05:11.102Z,5.80
2018-11-28T00:07:40.464Z,5.80
2018-11-28T00:10:11.502Z,5.80
2018-11-28T00:12:40.882Z,5.80
2018-11-28T00:15:11.276Z,5.80
2018-11-28T00:17:39.869Z,5.80
2018-11-28T00:20:14.094Z,5.80
2018-11-28T00:22:43.369Z,5.80
2018-11-28T00:25:12.378Z,5.80
2018-11-28T00:27:41.345Z,5.80
2018-11-28T00:30:14.809Z,5.80
2018-11-28T00:32:43.663Z,5.80
2018-11-28T00:35:15.719Z,5.80
2018-11-28T00:37:44.857Z,5.80
2018-11-28T00:40:14.483Z,5.80
2018-11-28T00:42:42.861Z,5.80
2018-11-28T00:45:13.130Z,5.80
2018-11-28T00:47:41.373Z,5.80
2018-11-28T00:50:18.346Z,5.80
2018-11-28T00:52:46.947Z,5.80
2018-11-28T00:55:16.103Z,5.80
2018-11-28T00:57:44.644Z,5.80
2018-11-28T01:00:16.935Z,5.80
2018-11-28T01:02:45.348Z,5.80
2018-11-28T01:05:14.076Z,5.80
2018-11-28T01:07:42.901Z,5.80
2018-11-28T01:10:13.084Z,5.80
2018-11-28T01:12:41.361Z,5.80
2018-11-28T01:15:11.834Z,5.80
2018-11-28T01:17:40.097Z,5.80
2018-11-28T01:20:12.605Z,5.80
2018-11-28T01:22:40.841Z,5.80
2018-11-28T01:25:10.061Z,5.80
2018-11-28T01:27:38.358Z,5.80
2018-11-28T01:30:23.894Z,5.70
2018-11-28T01:32:52.345Z,5.70
2018-11-28T01:35:21.447Z,5.70
2018-11-28T01:37:49.722Z,5.60
2018-11-28T01:40:21.080Z,5.60
2018-11-28T01:42:49.328Z,5.50
2018-11-28T01:45:18.565Z,5.60
2018-11-28T01:47:46.880Z,5.60
2018-11-28T01:50:20.062Z,5.60
2018-11-28T01:52:48.507Z,5.60
2018-11-28T01:55:19.753Z,5.50
2018-11-28T01:57:48.900Z,5.50
2018-11-28T02:00:21.110Z,5.50
2018-11-28T02:02:54.822Z,5.50
2018-11-28T02:05:23.083Z,5.50
2018-11-28T02:07:51.602Z,5.50
2018-11-28T02:10:19.823Z,5.50
2018-11-28T02:12:48.139Z,5.50
2018-11-28T02:15:18.281Z,5.40
2018-11-28T02:17:46.513Z,5.40
2018-11-28T02:20:15.784Z,5.40
2018-11-28T02:22:44.205Z,5.30
2018-11-28T02:25:16.495Z,5.30
2018-11-28T02:27:46.355Z,5.30
2018-11-28T02:30:16.381Z,5.30
2018-11-28T02:32:45.129Z,5.30
2018-11-28T02:35:14.321Z,5.40
2018-11-28T02:37:42.614Z,5.40
2018-11-28T02:40:14.777Z,5.40
2018-11-28T02:42:43.062Z,5.40
2018-11-28T02:45:12.693Z,5.40
2018-11-28T02:47:40.909Z,5.30
2018-11-28T02:50:09.141Z,5.30
2018-11-28T02:52:37.386Z,5.30
2018-11-28T02:55:07.581Z,5.30
2018-11-28T02:57:35.854Z,5.30
2018-11-28T03:00:07.327Z,5.30
2018-11-28T03:02:39.874Z,5.40
2018-11-28T03:05:09.592Z,5.30
2018-11-28T03:07:38.192Z,5.30
2018-11-28T03:10:09.770Z,5.40
2018-11-28T03:12:37.993Z,5.40
2018-11-28T03:15:07.882Z,5.40
2018-11-28T03:17:36.168Z,5.40
2018-11-28T03:20:05.570Z,5.30
2018-11-28T03:22:33.809Z,5.30
2018-11-28T03:25:02.094Z,5.30
2018-11-28T03:27:30.298Z,5.30
2018-11-28T03:29:58.660Z,5.30
2018-11-28T03:32:26.975Z,5.30
2018-11-28T03:34:55.229Z,5.30
2018-11-28T03:37:23.468Z,5.30
2018-11-28T03:39:51.713Z,5.30
2018-11-28T03:42:19.966Z,5.30
2018-11-28T03:44:49.510Z,5.20
2018-11-28T03:47:17.743Z,5.20
2018-11-28T03:49:45.908Z,5.20
2018-11-28T03:52:14.097Z,5.20
2018-11-28T03:54:42.442Z,5.20
2018-11-28T03:57:10.643Z,5.20
2018-11-28T03:59:38.895Z,5.30
2018-11-28T04:02:07.144Z,5.30
2018-11-28T04:04:35.336Z,5.30
2018-11-28T04:07:03.614Z,5.30
2018-11-28T04:09:31.894Z,5.30
2018-11-28T04:12:00.134Z,5.30
2018-11-28T04:14:28.326Z,5.30
2018-11-28T04:16:56.538Z,5.30
2018-11-28T04:19:24.789Z,5.30
2018-11-28T04:21:53.342Z,5.30
2018-11-28T04:24:21.505Z,5.20
2018-11-28T04:26:49.730Z,5.20
2018-11-28T04:29:17.928Z,5.20
2018-11-28T04:31:46.134Z,5.20
2018-11-28T04:34:14.427Z,5.20
2018-11-28T04:36:42.617Z,5.20
2018-11-28T04:39:11.067Z,5.20
2018-11-28T04:41:39.347Z,5.20
2018-11-28T04:44:07.570Z,5.30
2018-11-28T04:46:35.769Z,5.30
2018-11-28T04:49:04.798Z,5.40
2018-11-28T04:51:33.020Z,5.30
2018-11-28T04:54:01.201Z,5.30
2018-11-28T04:56:29.420Z,5.30
2018-11-28T04:58:57.669Z,5.30
2018-11-28T05:01:25.944Z,5.30
2018-11-28T05:03:54.749Z,5.30
2018-11-28T05:06:37.249Z,5.30
2018-11-28T05:09:06.422Z,5.40
2018-11-28T05:11:34.625Z,5.40
2018-11-28T05:14:02.826Z,5.30
2018-11-28T05:16:31.100Z,5.40
2018-11-28T05:18:59.342Z,5.30
2018-11-28T05:21:27.568Z,5.30
2018-11-28T05:23:55.867Z,5.30
2018-11-28T05:26:24.502Z,5.30
2018-11-28T05:28:52.722Z,5.30
2018-11-28T05:31:21.050Z,5.30
2018-11-28T05:33:49.257Z,5.30
2018-11-28T05:36:17.446Z,5.30
2018-11-28T05:38:45.694Z,5.20
2018-11-28T05:41:14.029Z,5.20
2018-11-28T05:43:42.217Z,5.20
2018-11-28T05:46:10.704Z,5.10
2018-11-28T05:48:38.956Z,5.10
2018-11-28T05:51:07.202Z,5.10
2018-11-28T05:53:35.394Z,5.00
2018-11-28T05:56:03.717Z,5.00
2018-11-28T05:58:31.909Z,5.00
2018-11-28T06:01:00.184Z,5.00
2018-11-28T06:03:28.408Z,5.00
2018-11-28T06:05:56.635Z,5.00
2018-11-28T06:08:24.794Z,5.00
2018-11-28T06:10:53.259Z,5.00
2018-11-28T06:13:21.614Z,4.90
2018-11-28T06:15:49.910Z,4.90
2018-11-28T06:18:18.426Z,4.80
2018-11-28T06:20:46.739Z,4.80
2018-11-28T06:23:14.987Z,4.80
2018-11-28T06:25:43.184Z,4.80
2018-11-28T06:28:11.397Z,4.80
2018-11-28T06:30:39.649Z,4.80
2018-11-28T06:33:07.897Z,4.70
2018-11-28T06:35:36.086Z,4.70
2018-11-28T06:38:04.648Z,4.70
2018-11-28T06:40:32.844Z,4.70
2018-11-28T06:43:01.155Z,4.70
2018-11-28T06:45:29.366Z,4.70
2018-11-28T06:47:57.574Z,4.70
2018-11-28T06:50:25.818Z,4.70
2018-11-28T06:52:54.184Z,4.70
2018-11-28T06:55:22.642Z,4.70
2018-11-28T06:57:50.896Z,4.60
2018-11-28T07:00:22.350Z,4.60
2018-11-28T07:02:52.637Z,4.60
2018-11-28T07:05:21.471Z,4.60
2018-11-28T07:07:49.889Z,4.60
2018-11-28T07:10:20.208Z,4.60
2018-11-28T07:12:48.455Z,4.50
2018-11-28T07:15:22.427Z,4.60
2018-11-28T07:17:50.700Z,4.60
2018-11-28T07:20:19.070Z,4.50
2018-11-28T07:22:47.223Z,4.50
2018-11-28T07:25:16.810Z,4.60
2018-11-28T07:27:45.713Z,4.60
2018-11-28T07:30:15.972Z,4.60
2018-11-28T07:32:44.439Z,4.60
2018-11-28T07:35:13.360Z,4.60
2018-11-28T07:37:41.628Z,4.60
2018-11-28T07:40:14.979Z,4.70
2018-11-28T07:42:45.273Z,4.70
2018-11-28T07:45:13.633Z,4.70
2018-11-28T07:47:41.842Z,4.60
2018-11-28T07:50:10.551Z,4.60
2018-11-28T07:52:39.334Z,4.60
2018-11-28T07:55:10.343Z,4.60
2018-11-28T07:57:38.857Z,4.60
2018-11-28T08:00:14.425Z,4.60
2018-11-28T08:02:45.116Z,4.60
2018-11-28T08:05:13.838Z,4.60
2018-11-28T08:07:42.119Z,4.60
2018-11-28T08:10:16.049Z,4.60
2018-11-28T08:12:44.529Z,4.60
2018-11-28T08:15:12.864Z,4.60
2018-11-28T08:17:41.125Z,4.60
2018-11-28T08:20:09.410Z,4.60
2018-11-28T08:22:37.715Z,4.60
2018-11-28T08:25:07.034Z,4.60
2018-11-28T08:27:34.988Z,4.60
2018-11-28T08:30:03.512Z,4.60
2018-11-28T08:32:31.723Z,4.60
2018-11-28T08:34:59.987Z,4.60
2018-11-28T08:37:28.279Z,4.70
2018-11-28T08:39:56.640Z,4.70
2018-11-28T08:42:24.863Z,4.70
2018-11-28T08:44:53.161Z,4.70
2018-11-28T08:47:21.291Z,4.70
2018-11-28T08:49:49.500Z,4.70
2018-11-28T08:52:17.747Z,4.80
2018-11-28T08:54:45.984Z,4.80
2018-11-28T08:57:14.185Z,4.90
2018-11-28T08:59:42.365Z,5.00
2018-11-28T09:02:10.542Z,5.00
2018-11-28T09:04:40.704Z,5.00
2018-11-28T09:07:08.917Z,5.10
2018-11-28T09:09:37.216Z,5.10
2018-11-28T09:12:05.673Z,5.10
2018-11-28T09:14:33.944Z,5.10
2018-11-28T09:17:02.140Z,5.10
2018-11-28T09:19:30.369Z,5.20
2018-11-28T09:21:58.621Z,5.20
2018-11-28T09:24:26.829Z,5.20
2018-11-28T09:26:56.926Z,5.30
2018-11-28T09:29:25.149Z,5.30
2018-11-28T09:31:53.386Z,5.30
2018-11-28T09:34:21.609Z,5.30
2018-11-28T09:36:49.890Z,5.40
2018-11-28T09:39:18.114Z,5.40
2018-11-28T09:41:46.342Z,5.40
2018-11-28T09:44:14.649Z,5.50
2018-11-28T09:46:42.869Z,5.50
2018-11-28T09:49:11.096Z,5.50
2018-11-28T09:51:39.342Z,5.50
2018-11-28T09:54:07.586Z,5.60
2018-11-28T09:56:35.831Z,5.60
2018-11-28T09:59:04.179Z,5.60
2018-11-28T10:01:32.366Z,5.70
2018-11-28T10:04:00.575Z,5.70
2018-11-28T10:06:29.005Z,5.80
2018-11-28T10:08:57.239Z,5.80
2018-11-28T10:11:25.417Z,5.80
2018-11-28T10:13:53.629Z,5.90
2018-11-28T10:16:21.853Z,5.90
2018-11-28T10:18:50.041Z,5.90
2018-11-28T10:21:18.262Z,5.90
2018-11-28T10:23:46.480Z,6.00
2018-11-28T10:26:14.693Z,6.00
2018-11-28T10:28:43.554Z,6.10
2018-11-28T10:31:11.739Z,6.10
2018-11-28T10:33:39.989Z,6.10
2018-11-28T10:36:08.250Z,6.10
2018-11-28T10:38:36.642Z,6.10
2018-11-28T10:41:04.879Z,6.20
2018-11-28T10:43:33.061Z,6.30
2018-11-28T10:46:01.279Z,6.30
2018-11-28T10:48:29.507Z,6.30
2018-11-28T10:50:57.748Z,6.40
2018-11-28T10:53:26.002Z,6.40
2018-11-28T10:55:54.289Z,6.40
2018-11-28T10:58:22.493Z,6.50
2018-11-28T11:00:56.270Z,6.50
2018-11-28T11:03:29.968Z,6.50
2018-11-28T11:06:07.472Z,6.60
2018-11-28T11:08:42.192Z,6.60
2018-11-28T11:11:26.027Z,6.60
2018-11-28T11:13:59.612Z,6.70
2018-11-28T11:16:30.404Z,6.70
2018-11-28T11:18:59.158Z,6.70
2018-11-28T11:21:28.045Z,6.70
2018-11-28T11:23:56.263Z,6.70
2018-11-28T11:26:25.393Z,6.80
2018-11-28T11:28:53.585Z,6.80
2018-11-28T11:31:21.846Z,6.80
2018-11-28T11:33:50.112Z,6.90
2018-11-28T11:36:18.412Z,6.90
2018-11-28T11:38:46.640Z,6.90
2018-11-28T11:41:16.810Z,6.90
2018-11-28T11:43:45.009Z,6.90
2018-11-28T11:46:13.286Z,6.90
2018-11-28T11:48:41.523Z,6.90
2018-11-28T11:51:09.750Z,6.90
2018-11-28T11:53:38.011Z,6.90
2018-11-28T11:56:06.245Z,6.90
2018-11-28T11:58:34.457Z,6.90
2018-11-28T12:01:03.755Z,6.90
2018-11-28T12:03:31.969Z,6.90
2018-11-28T12:06:00.274Z,6.90
2018-11-28T12:08:29.206Z,6.90
2018-11-28T12:10:57.445Z,6.90
2018-11-28T12:13:26.516Z,6.90
2018-11-28T12:15:54.729Z,6.90
2018-11-28T12:18:22.996Z,6.90
2018-11-28T12:20:52.798Z,7.00
2018-11-28T12:23:21.088Z,7.00
2018-11-28T12:25:49.381Z,7.10
2018-11-28T12:28:17.701Z,7.10
2018-11-28T12:30:46.072Z,7.10
2018-11-28T12:33:14.264Z,7.10
2018-11-28T12:35:42.479Z,7.10
2018-11-28T12:38:10.800Z,7.10
2018-11-28T12:40:39.068Z,7.10
2018-11-28T12:43:08.616Z,7.10
2018-11-28T12:45:39.367Z,7.10
2018-11-28T12:48:07.615Z,7.10
2018-11-28T12:50:35.809Z,7.10
2018-11-28T12:53:04.107Z,7.20
2018-11-28T12:55:33.978Z,7.20
2018-11-28T12:58:02.181Z,7.20
2018-11-28T13:00:33.166Z,7.30
2018-11-28T13:03:01.424Z,7.30
2018-11-28T13:05:31.420Z,7.30
2018-11-28T13:07:59.612Z,7.30
2018-11-28T13:10:31.033Z,7.40
2018-11-28T13:12:59.282Z,7.40
2018-11-28T13:15:27.566Z,7.40
2018-11-28T13:17:55.785Z,7.40
2018-11-28T13:20:24.125Z,7.40
2018-11-28T13:22:53.274Z,7.40
2018-11-28T13:25:25.377Z,7.30
2018-11-28T13:27:53.746Z,7.30
2018-11-28T13:30:22.721Z,7.30
2018-11-28T13:32:51.496Z,7.30
2018-11-28T13:35:20.701Z,7.30
2018-11-28T13:37:50.006Z,7.20
2018-11-28T13:40:19.032Z,7.20
2018-11-28T13:42:47.348Z,7.20
2018-11-28T13:45:17.832Z,7.20
2018-11-28T13:47:50.108Z,7.20
2018-11-28T13:50:18.281Z,7.30
2018-11-28T13:52:48.139Z,7.30
2018-11-28T13:57:48.845Z,7.30
2018-11-28T14:00:17.113Z,7.30
2018-11-28T14:02:45.391Z,7.30
2018-11-28T14:05:13.918Z,7.30
2018-11-28T14:07:42.765Z,7.30
2018-11-28T14:10:11.901Z,7.30
2018-11-28T14:12:40.167Z,7.20
2018-11-28T14:15:11.453Z,7.20
2018-11-28T14:17:39.677Z,7.20
2018-11-28T14:20:10.104Z,7.20
2018-11-28T14:22:39.121Z,7.20
2018-11-28T14:25:09.018Z,7.30
2018-11-28T14:27:37.123Z,7.30
2018-11-28T14:30:09.914Z,7.30
2018-11-28T14:32:38.223Z,7.30
2018-11-28T14:35:07.797Z,7.30
2018-11-28T14:37:35.988Z,7.30
2018-11-28T14:40:06.211Z,7.40
2018-11-28T14:42:34.477Z,7.40
2018-11-28T14:45:02.991Z,7.40
2018-11-28T14:47:31.220Z,7.40
2018-11-28T14:49:59.466Z,7.40
2018-11-28T14:52:27.854Z,7.50
2018-11-28T14:54:56.054Z,7.50
2018-11-28T14:57:24.289Z,7.50
2018-11-28T14:59:52.701Z,7.50
2018-11-28T15:02:20.756Z,7.50
2018-11-28T15:04:49.025Z,7.50
2018-11-28T15:07:18.189Z,7.50
2018-11-28T15:09:54.077Z,7.50
2018-11-28T15:12:22.868Z,7.50
2018-11-28T15:14:51.567Z,7.60
2018-11-28T15:17:19.857Z,7.50
2018-11-28T15:19:48.290Z,7.50
2018-11-28T15:22:16.515Z,7.50
2018-11-28T15:24:44.758Z,7.50
2018-11-28T15:27:12.975Z,7.50
2018-11-28T15:29:41.272Z,7.50
2018-11-28T15:32:09.513Z,7.40
2018-11-28T15:34:37.901Z,7.40
2018-11-28T15:37:06.697Z,7.40
2018-11-28T15:39:34.867Z,7.30
2018-11-28T15:42:03.069Z,7.40
2018-11-28T15:44:31.335Z,7.40
2018-11-28T15:47:00.181Z,7.40
2018-11-28T15:49:28.664Z,7.30
2018-11-28T15:51:56.892Z,7.30
2018-11-28T15:54:25.258Z,7.40
2018-11-28T15:56:53.465Z,7.40
2018-11-28T15:59:21.673Z,7.40
2018-11-28T16:01:49.948Z,7.30
2018-11-28T16:04:18.139Z,7.30
2018-11-28T16:06:46.657Z,7.30
2018-11-28T16:09:20.332Z,7.30
2018-11-28T16:11:48.789Z,7.30
2018-11-28T16:14:17.016Z,7.30
2018-11-28T16:16:45.228Z,7.30
2018-11-28T16:19:13.491Z,7.30
2018-11-28T16:21:42.023Z,7.30
2018-11-28T16:24:10.252Z,7.30
2018-11-28T16:26:38.654Z,7.30
2018-11-28T16:29:06.894Z,7.40
2018-11-28T16:31:35.077Z,7.40
2018-11-28T16:34:03.257Z,7.40
2018-11-28T16:36:31.701Z,7.40
2018-11-28T16:39:00.000Z,7.40
2018-11-28T16:41:28.540Z,7.40
2018-11-28T16:43:56.724Z,7.50
2018-11-28T16:46:24.989Z,7.40
2018-11-28T16:48:53.215Z,7.40
2018-11-28T16:51:21.898Z,7.40
2018-11-28T16:53:50.226Z,7.50
2018-11-28T16:56:18.437Z,7.50
2018-11-28T16:58:46.660Z,7.40
2018-11-28T17:01:14.885Z,7.40
2018-11-28T17:03:43.156Z,7.50
2018-11-28T17:06:11.391Z,7.40
2018-11-28T17:08:39.561Z,7.40
2018-11-28T17:11:07.806Z,7.50
2018-11-28T17:13:36.048Z,7.50
2018-11-28T17:16:04.236Z,7.50
2018-11-28T17:18:32.451Z,7.40
2018-11-28T17:21:00.649Z,7.40
2018-11-28T17:23:29.284Z,7.40
2018-11-28T17:25:58.352Z,7.50
2018-11-28T17:28:27.917Z,7.50
2018-11-28T17:30:56.110Z,7.50
2018-11-28T17:33:24.311Z,7.50
2018-11-28T17:35:52.504Z,7.40
2018-11-28T17:38:20.780Z,7.50
2018-11-28T17:40:49.045Z,7.50
2018-11-28T17:43:17.260Z,7.50
2018-11-28T17:45:45.580Z,7.50
2018-11-28T17:48:13.936Z,7.50
2018-11-28T17:50:42.185Z,7.50
2018-11-28T17:53:13.322Z,7.50
2018-11-28T17:55:53.013Z,7.50
2018-11-28T17:58:21.346Z,7.50
2018-11-28T18:00:49.770Z,7.50
2018-11-28T18:03:18.401Z,7.50
2018-11-28T18:05:46.649Z,7.50
2018-11-28T18:08:15.639Z,7.50
2018-11-28T18:10:43.983Z,7.50
2018-11-28T18:13:14.101Z,7.50
2018-11-28T18:15:46.113Z,7.50
2018-11-28T18:18:16.040Z,7.50
2018-11-28T18:20:50.208Z,7.50
2018-11-28T18:23:14.442Z,7.50
2018-11-28T18:25:43.578Z,7.60
2018-11-28T18:28:11.867Z,7.60
2018-11-28T18:30:40.088Z,7.60
2018-11-28T18:33:09.321Z,7.60
2018-11-28T18:35:37.499Z,7.60
2018-11-28T18:38:05.998Z,7.60
2018-11-28T18:40:34.381Z,7.60
2018-11-28T18:43:02.629Z,7.60
2018-11-28T18:45:32.481Z,7.60
2018-11-28T18:48:02.236Z,7.60
2018-11-28T18:50:30.463Z,7.60
2018-11-28T18:52:58.772Z,7.60
2018-11-28T18:55:26.973Z,7.60
2018-11-28T18:57:56.116Z,7.60
2018-11-28T19:00:26.963Z,7.60
2018-11-28T19:02:55.753Z,7.60
2018-11-28T19:05:24.004Z,7.50
2018-11-28T19:07:52.266Z,7.50
2018-11-28T19:10:26.283Z,7.50
2018-11-28T19:12:50.271Z,7.50
2018-11-28T19:15:20.705Z,7.50
2018-11-28T19:17:49.331Z,7.50
2018-11-28T19:20:19.898Z,7.50
2018-11-28T19:22:48.632Z,7.50
2018-11-28T19:25:18.174Z,7.50
2018-11-28T19:27:46.624Z,7.50
2018-11-28T19:30:18.630Z,7.50
2018-11-28T19:32:46.918Z,7.50
2018-11-28T19:35:15.230Z,7.50
2018-11-28T19:37:43.699Z,7.50
2018-11-28T19:40:22.452Z,7.50
2018-11-28T19:42:50.732Z,7.50
2018-11-28T19:45:19.060Z,7.40
2018-11-28T19:47:47.399Z,7.40
2018-11-28T19:50:21.168Z,7.40
2018-11-28T19:52:49.728Z,7.40
2018-11-28T19:55:17.991Z,7.40
2018-11-28T19:57:46.212Z,7.40
2018-11-28T20:00:15.551Z,7.40
2018-11-28T20:02:44.393Z,7.40
2018-11-28T20:05:12.851Z,7.40
2018-11-28T20:07:42.365Z,7.40
2018-11-28T20:10:12.180Z,7.40
2018-11-28T20:12:40.558Z,7.40
2018-11-28T20:15:21.083Z,7.30
2018-11-28T20:17:49.822Z,7.30
2018-11-28T20:20:18.256Z,7.30
2018-11-28T20:22:46.539Z,7.30
2018-11-28T20:25:16.938Z,7.30
2018-11-28T20:27:47.343Z,7.30
2018-11-28T20:30:27.389Z,7.30
2018-11-28T20:32:55.668Z,7.20
2018-11-28T20:35:24.065Z,7.20
2018-11-28T20:37:52.837Z,7.20
2018-11-28T20:40:21.232Z,7.20
2018-11-28T20:42:50.627Z,7.20
2018-11-28T20:45:18.946Z,7.20
2018-11-28T20:47:47.254Z,7.20
2018-11-28T20:50:19.796Z,7.20
2018-11-28T20:52:54.783Z,7.20
2018-11-28T20:55:17.958Z,7.20
2018-11-28T20:57:46.205Z,7.10
2018-11-28T21:00:17.046Z,7.10
2018-11-28T21:02:45.315Z,7.10
2018-11-28T21:05:13.574Z,7.10
2018-11-28T21:07:41.992Z,7.10
2018-11-28T21:10:17.928Z,7.10
2018-11-28T21:12:46.810Z,7.10
2018-11-28T21:15:16.127Z,7.10
2018-11-28T21:17:45.114Z,7.10
2018-11-28T21:20:18.253Z,7.00
2018-11-28T21:22:51.836Z,7.00
2018-11-28T21:25:21.417Z,7.00
2018-11-28T21:27:49.862Z,7.00
2018-11-28T21:30:19.204Z,7.00
2018-11-28T21:32:48.322Z,7.00
2018-11-28T21:35:17.925Z,7.00
2018-11-28T21:37:46.188Z,6.90
2018-11-28T21:40:14.580Z,6.90
2018-11-28T21:42:42.845Z,6.90
2018-11-28T21:45:14.260Z,6.90
2018-11-28T21:47:42.571Z,6.90
2018-11-28T21:50:12.981Z,6.90
2018-11-28T21:52:41.222Z,6.90
2018-11-28T21:55:14.056Z,6.90
2018-11-28T21:57:42.789Z,6.90
2018-11-28T22:00:13.321Z,6.90
2018-11-28T22:02:41.522Z,6.80
2018-11-28T22:05:10.678Z,6.80
2018-11-28T22:07:39.119Z,6.80
2018-11-28T22:10:13.199Z,6.70
2018-11-28T22:12:42.751Z,6.70
2018-11-28T22:15:12.897Z,6.70
2018-11-28T22:17:42.367Z,6.60
2018-11-28T22:20:12.244Z,6.70
2018-11-28T22:22:40.532Z,6.60
2018-11-28T22:25:16.041Z,6.60
2018-11-28T22:27:44.382Z,6.70
2018-11-28T22:30:15.774Z,6.70
2018-11-28T22:32:44.777Z,6.70
2018-11-28T22:35:13.325Z,6.70
2018-11-28T22:37:41.658Z,6.70
2018-11-28T22:40:15.383Z,6.80
2018-11-28T22:42:43.728Z,6.80
2018-11-28T22:45:20.598Z,6.80
2018-11-28T22:47:49.626Z,6.80
2018-11-28T22:50:17.991Z,6.80
2018-11-28T22:52:46.259Z,6.80
2018-11-28T22:55:15.400Z,6.90
2018-11-28T22:57:43.760Z,6.90
2018-11-28T23:00:15.065Z,6.90
2018-11-28T23:02:53.644Z,6.90
2018-11-28T23:05:23.393Z,6.90
2018-11-28T23:07:51.640Z,6.80
2018-11-28T23:10:20.442Z,6.80
2018-11-28T23:12:48.750Z,6.80
2018-11-28T23:15:16.942Z,6.80
2018-11-28T23:17:45.185Z,6.80
2018-11-28T23:20:13.438Z,6.80
2018-11-28T23:22:41.693Z,6.80
2018-11-28T23:25:11.297Z,6.80
2018-11-28T23:27:39.496Z,6.80
2018-11-28T23:30:14.440Z,6.80
2018-11-28T23:32:42.812Z,6.80
2018-11-28T23:35:11.960Z,6.80
2018-11-28T23:37:41.111Z,6.80
2018-11-28T23:40:15.557Z,6.80
2018-11-28T23:42:43.860Z,6.80
2018-11-28T23:45:13.104Z,6.80
2018-11-28T23:47:41.414Z,6.80
2018-11-28T23:50:14.755Z,6.80
2018-11-28T23:52:43.870Z,6.80
2018-11-28T23:55:18.490Z,6.80
2018-11-28T23:57:47.185Z,6.80
